sensor_id;sensor_type;location;lat;lon;timestamp;P1;durP1;ratioP1;P2;durP2;ratioP2
24443;SDS011;13346;50.984;5.822;2023-02-05T00:01:34;10.73;;;9.23;;
24443;SDS011;13346;50.984;5.822;2023-02-05T00:04:02;12.23;;;8.97;;
24443;SDS011;13346;50.984;5.822;2023-02-05T00:06:31;13.17;;;9.67;;
24443;SDS011;13346;50.984;5.822;2023-02-05T00:08:58;13.10;;;10.17;;
24443;SDS011;13346;50.984;5.822;2023-02-05T00:11:25;15.17;;;11.07;;
24443;SDS011;13346;50.984;5.822;2023-02-05T00:13:52;16.20;;;11.10;;
24443;SDS011;13346;50.984;5.822;2023-02-05T00:16:20;17.20;;;13.37;;
24443;SDS011;13346;50.984;5.822;2023-02-05T00:18:48;20.33;;;13.93;;
24443;SDS011;13346;50.984;5.822;2023-02-05T00:21:18;25.47;;;15.20;;
24443;SDS011;13346;50.984;5.822;2023-02-05T00:23:48;23.50;;;15.57;;
24443;SDS011;13346;50.984;5.822;2023-02-05T00:26:16;29.17;;;16.40;;
24443;SDS011;13346;50.984;5.822;2023-02-05T00:28:43;31.30;;;19.17;;
24443;SDS011;13346;50.984;5.822;2023-02-05T00:31:11;28.77;;;19.10;;
24443;SDS011;13346;50.984;5.822;2023-02-05T00:33:40;28.27;;;17.33;;
24443;SDS011;13346;50.984;5.822;2023-02-05T00:36:07;30.60;;;19.40;;
24443;SDS011;13346;50.984;5.822;2023-02-05T00:38:35;29.37;;;18.17;;
24443;SDS011;13346;50.984;5.822;2023-02-05T00:41:04;29.43;;;18.23;;
24443;SDS011;13346;50.984;5.822;2023-02-05T00:43:31;35.97;;;21.30;;
24443;SDS011;13346;50.984;5.822;2023-02-05T00:45:59;31.57;;;20.17;;
24443;SDS011;13346;50.984;5.822;2023-02-05T00:48:26;34.03;;;20.10;;
24443;SDS011;13346;50.984;5.822;2023-02-05T00:50:53;32.03;;;20.70;;
24443;SDS011;13346;50.984;5.822;2023-02-05T00:53:21;36.13;;;21.50;;
24443;SDS011;13346;50.984;5.822;2023-02-05T00:55:49;33.87;;;23.23;;
24443;SDS011;13346;50.984;5.822;2023-02-05T00:58:17;33.17;;;22.57;;
24443;SDS011;13346;50.984;5.822;2023-02-05T01:00:45;35.97;;;22.43;;
24443;SDS011;13346;50.984;5.822;2023-02-05T01:03:12;35.57;;;22.73;;
24443;SDS011;13346;50.984;5.822;2023-02-05T01:05:40;37.20;;;23.73;;
24443;SDS011;13346;50.984;5.822;2023-02-05T01:08:07;37.80;;;23.80;;
24443;SDS011;13346;50.984;5.822;2023-02-05T01:10:35;37.63;;;23.80;;
24443;SDS011;13346;50.984;5.822;2023-02-05T01:13:03;40.17;;;22.90;;
24443;SDS011;13346;50.984;5.822;2023-02-05T01:15:33;39.57;;;22.67;;
24443;SDS011;13346;50.984;5.822;2023-02-05T01:18:01;34.10;;;21.20;;
24443;SDS011;13346;50.984;5.822;2023-02-05T01:20:28;34.07;;;22.23;;
24443;SDS011;13346;50.984;5.822;2023-02-05T01:22:55;33.17;;;22.10;;
24443;SDS011;13346;50.984;5.822;2023-02-05T01:25:22;32.97;;;21.03;;
24443;SDS011;13346;50.984;5.822;2023-02-05T01:27:50;31.70;;;20.40;;
24443;SDS011;13346;50.984;5.822;2023-02-05T01:30:17;43.33;;;23.83;;
24443;SDS011;13346;50.984;5.822;2023-02-05T01:32:45;32.83;;;21.17;;
24443;SDS011;13346;50.984;5.822;2023-02-05T01:35:13;32.63;;;21.13;;
24443;SDS011;13346;50.984;5.822;2023-02-05T01:37:40;35.07;;;21.83;;
24443;SDS011;13346;50.984;5.822;2023-02-05T01:40:08;36.33;;;21.87;;
24443;SDS011;13346;50.984;5.822;2023-02-05T01:42:38;36.57;;;23.23;;
24443;SDS011;13346;50.984;5.822;2023-02-05T01:48:08;38.23;;;24.30;;
24443;SDS011;13346;50.984;5.822;2023-02-05T01:50:36;34.53;;;22.83;;
24443;SDS011;13346;50.984;5.822;2023-02-05T01:53:07;38.67;;;23.20;;
24443;SDS011;13346;50.984;5.822;2023-02-05T01:55:36;42.03;;;23.43;;
24443;SDS011;13346;50.984;5.822;2023-02-05T01:58:07;35.20;;;23.13;;
24443;SDS011;13346;50.984;5.822;2023-02-05T02:00:35;40.10;;;23.23;;
24443;SDS011;13346;50.984;5.822;2023-02-05T02:03:02;36.60;;;22.60;;
24443;SDS011;13346;50.984;5.822;2023-02-05T02:05:31;33.57;;;22.70;;
24443;SDS011;13346;50.984;5.822;2023-02-05T02:07:58;35.27;;;20.87;;
24443;SDS011;13346;50.984;5.822;2023-02-05T02:10:26;39.53;;;23.13;;
24443;SDS011;13346;50.984;5.822;2023-02-05T02:12:54;32.13;;;21.13;;
24443;SDS011;13346;50.984;5.822;2023-02-05T02:15:22;35.97;;;24.07;;
24443;SDS011;13346;50.984;5.822;2023-02-05T02:17:52;35.33;;;22.07;;
24443;SDS011;13346;50.984;5.822;2023-02-05T02:20:43;40.40;;;24.17;;
24443;SDS011;13346;50.984;5.822;2023-02-05T02:23:15;45.83;;;25.23;;
24443;SDS011;13346;50.984;5.822;2023-02-05T02:26:14;36.93;;;24.20;;
24443;SDS011;13346;50.984;5.822;2023-02-05T02:28:53;35.57;;;21.40;;
24443;SDS011;13346;50.984;5.822;2023-02-05T02:31:26;36.57;;;22.47;;
24443;SDS011;13346;50.984;5.822;2023-02-05T02:33:59;37.60;;;24.23;;
24443;SDS011;13346;50.984;5.822;2023-02-05T02:36:31;35.97;;;24.87;;
24443;SDS011;13346;50.984;5.822;2023-02-05T02:39:02;42.27;;;24.50;;
24443;SDS011;13346;50.984;5.822;2023-02-05T02:41:35;39.13;;;23.90;;
24443;SDS011;13346;50.984;5.822;2023-02-05T02:44:08;36.47;;;23.50;;
24443;SDS011;13346;50.984;5.822;2023-02-05T02:46:40;39.77;;;24.90;;
24443;SDS011;13346;50.984;5.822;2023-02-05T02:49:11;45.50;;;25.37;;
24443;SDS011;13346;50.984;5.822;2023-02-05T02:51:42;41.53;;;25.27;;
24443;SDS011;13346;50.984;5.822;2023-02-05T02:54:11;41.83;;;24.50;;
24443;SDS011;13346;50.984;5.822;2023-02-05T02:56:43;37.90;;;24.70;;
24443;SDS011;13346;50.984;5.822;2023-02-05T02:59:14;42.63;;;25.83;;
24443;SDS011;13346;50.984;5.822;2023-02-05T03:01:45;33.00;;;22.03;;
24443;SDS011;13346;50.984;5.822;2023-02-05T03:04:17;38.80;;;22.87;;
24443;SDS011;13346;50.984;5.822;2023-02-05T03:06:49;36.20;;;24.53;;
24443;SDS011;13346;50.984;5.822;2023-02-05T03:09:21;38.27;;;23.33;;
24443;SDS011;13346;50.984;5.822;2023-02-05T03:11:55;38.63;;;22.47;;
24443;SDS011;13346;50.984;5.822;2023-02-05T03:14:24;37.37;;;23.03;;
24443;SDS011;13346;50.984;5.822;2023-02-05T03:16:51;38.30;;;23.67;;
24443;SDS011;13346;50.984;5.822;2023-02-05T03:19:19;37.17;;;23.83;;
24443;SDS011;13346;50.984;5.822;2023-02-05T03:21:47;37.23;;;24.00;;
24443;SDS011;13346;50.984;5.822;2023-02-05T03:24:20;35.73;;;22.70;;
24443;SDS011;13346;50.984;5.822;2023-02-05T03:26:47;39.20;;;22.03;;
24443;SDS011;13346;50.984;5.822;2023-02-05T03:29:16;38.30;;;24.10;;
24443;SDS011;13346;50.984;5.822;2023-02-05T03:31:53;38.33;;;21.80;;
24443;SDS011;13346;50.984;5.822;2023-02-05T03:34:30;30.90;;;22.23;;
24443;SDS011;13346;50.984;5.822;2023-02-05T03:37:08;32.93;;;21.77;;
24443;SDS011;13346;50.984;5.822;2023-02-05T03:39:44;28.73;;;20.93;;
24443;SDS011;13346;50.984;5.822;2023-02-05T03:42:24;31.97;;;22.43;;
24443;SDS011;13346;50.984;5.822;2023-02-05T03:45:05;32.57;;;21.97;;
24443;SDS011;13346;50.984;5.822;2023-02-05T03:47:57;31.90;;;21.90;;
24443;SDS011;13346;50.984;5.822;2023-02-05T03:50:32;32.57;;;22.20;;
24443;SDS011;13346;50.984;5.822;2023-02-05T03:53:05;35.27;;;23.43;;
24443;SDS011;13346;50.984;5.822;2023-02-05T03:55:40;33.83;;;22.67;;
24443;SDS011;13346;50.984;5.822;2023-02-05T03:58:12;30.57;;;21.80;;
24443;SDS011;13346;50.984;5.822;2023-02-05T04:00:43;29.07;;;20.87;;
24443;SDS011;13346;50.984;5.822;2023-02-05T04:03:13;31.73;;;20.73;;
24443;SDS011;13346;50.984;5.822;2023-02-05T04:05:41;34.43;;;22.60;;
24443;SDS011;13346;50.984;5.822;2023-02-05T04:08:08;29.77;;;22.13;;
24443;SDS011;13346;50.984;5.822;2023-02-05T04:10:35;31.63;;;21.13;;
24443;SDS011;13346;50.984;5.822;2023-02-05T04:13:02;18.73;;;16.37;;
24443;SDS011;13346;50.984;5.822;2023-02-05T04:15:30;28.13;;;18.60;;
24443;SDS011;13346;50.984;5.822;2023-02-05T04:17:57;28.13;;;19.40;;
24443;SDS011;13346;50.984;5.822;2023-02-05T04:20:25;20.63;;;16.03;;
24443;SDS011;13346;50.984;5.822;2023-02-05T04:22:53;24.80;;;17.30;;
24443;SDS011;13346;50.984;5.822;2023-02-05T04:25:20;25.23;;;18.87;;
24443;SDS011;13346;50.984;5.822;2023-02-05T04:27:47;27.77;;;18.90;;
24443;SDS011;13346;50.984;5.822;2023-02-05T04:30:14;24.37;;;16.53;;
24443;SDS011;13346;50.984;5.822;2023-02-05T04:32:41;23.43;;;17.73;;
24443;SDS011;13346;50.984;5.822;2023-02-05T04:35:09;26.50;;;18.17;;
24443;SDS011;13346;50.984;5.822;2023-02-05T04:37:37;21.13;;;15.30;;
24443;SDS011;13346;50.984;5.822;2023-02-05T04:40:05;26.37;;;18.23;;
24443;SDS011;13346;50.984;5.822;2023-02-05T04:42:34;22.23;;;16.80;;
24443;SDS011;13346;50.984;5.822;2023-02-05T04:45:01;28.17;;;18.57;;
24443;SDS011;13346;50.984;5.822;2023-02-05T04:47:30;25.43;;;16.83;;
24443;SDS011;13346;50.984;5.822;2023-02-05T04:49:57;28.27;;;18.33;;
24443;SDS011;13346;50.984;5.822;2023-02-05T04:52:24;27.03;;;19.40;;
24443;SDS011;13346;50.984;5.822;2023-02-05T04:54:53;27.17;;;19.73;;
24443;SDS011;13346;50.984;5.822;2023-02-05T04:57:20;23.10;;;18.67;;
24443;SDS011;13346;50.984;5.822;2023-02-05T04:59:48;24.00;;;18.07;;
24443;SDS011;13346;50.984;5.822;2023-02-05T05:02:15;29.37;;;19.57;;
24443;SDS011;13346;50.984;5.822;2023-02-05T05:04:42;26.77;;;20.30;;
24443;SDS011;13346;50.984;5.822;2023-02-05T05:07:09;28.60;;;21.40;;
24443;SDS011;13346;50.984;5.822;2023-02-05T05:09:37;27.00;;;20.63;;
24443;SDS011;13346;50.984;5.822;2023-02-05T05:12:05;28.30;;;19.97;;
24443;SDS011;13346;50.984;5.822;2023-02-05T05:14:33;24.87;;;19.23;;
24443;SDS011;13346;50.984;5.822;2023-02-05T05:17:01;26.30;;;21.43;;
24443;SDS011;13346;50.984;5.822;2023-02-05T05:19:29;30.50;;;22.23;;
24443;SDS011;13346;50.984;5.822;2023-02-05T05:21:56;30.00;;;21.10;;
24443;SDS011;13346;50.984;5.822;2023-02-05T05:24:23;26.67;;;20.87;;
24443;SDS011;13346;50.984;5.822;2023-02-05T05:26:51;30.67;;;22.33;;
24443;SDS011;13346;50.984;5.822;2023-02-05T05:29:19;24.03;;;20.33;;
24443;SDS011;13346;50.984;5.822;2023-02-05T05:31:46;24.20;;;19.70;;
24443;SDS011;13346;50.984;5.822;2023-02-05T05:34:16;26.97;;;20.97;;
24443;SDS011;13346;50.984;5.822;2023-02-05T05:36:43;24.13;;;17.57;;
24443;SDS011;13346;50.984;5.822;2023-02-05T05:39:11;30.37;;;20.93;;
24443;SDS011;13346;50.984;5.822;2023-02-05T05:41:56;21.70;;;19.23;;
24443;SDS011;13346;50.984;5.822;2023-02-05T05:44:42;25.07;;;18.40;;
24443;SDS011;13346;50.984;5.822;2023-02-05T05:47:14;25.00;;;18.57;;
24443;SDS011;13346;50.984;5.822;2023-02-05T05:49:41;20.40;;;17.37;;
24443;SDS011;13346;50.984;5.822;2023-02-05T05:52:09;25.67;;;20.60;;
24443;SDS011;13346;50.984;5.822;2023-02-05T05:54:36;23.80;;;18.90;;
24443;SDS011;13346;50.984;5.822;2023-02-05T05:57:03;25.37;;;19.67;;
24443;SDS011;13346;50.984;5.822;2023-02-05T05:59:31;21.90;;;18.90;;
24443;SDS011;13346;50.984;5.822;2023-02-05T06:02:00;24.30;;;16.50;;
24443;SDS011;13346;50.984;5.822;2023-02-05T06:04:28;25.57;;;18.27;;
24443;SDS011;13346;50.984;5.822;2023-02-05T06:06:56;24.30;;;17.30;;
24443;SDS011;13346;50.984;5.822;2023-02-05T06:09:23;20.27;;;18.13;;
24443;SDS011;13346;50.984;5.822;2023-02-05T06:11:50;21.83;;;17.20;;
24443;SDS011;13346;50.984;5.822;2023-02-05T06:14:17;21.53;;;15.70;;
24443;SDS011;13346;50.984;5.822;2023-02-05T06:16:45;23.97;;;17.00;;
24443;SDS011;13346;50.984;5.822;2023-02-05T06:19:13;22.03;;;17.50;;
24443;SDS011;13346;50.984;5.822;2023-02-05T06:21:41;23.00;;;16.87;;
24443;SDS011;13346;50.984;5.822;2023-02-05T06:24:08;19.20;;;15.53;;
24443;SDS011;13346;50.984;5.822;2023-02-05T06:26:35;21.70;;;16.77;;
24443;SDS011;13346;50.984;5.822;2023-02-05T06:29:02;22.07;;;17.33;;
24443;SDS011;13346;50.984;5.822;2023-02-05T06:31:29;21.57;;;15.50;;
24443;SDS011;13346;50.984;5.822;2023-02-05T06:33:57;20.57;;;16.47;;
24443;SDS011;13346;50.984;5.822;2023-02-05T06:36:26;20.03;;;15.83;;
24443;SDS011;13346;50.984;5.822;2023-02-05T06:38:54;21.53;;;16.40;;
24443;SDS011;13346;50.984;5.822;2023-02-05T06:41:21;22.23;;;18.30;;
24443;SDS011;13346;50.984;5.822;2023-02-05T06:43:48;25.93;;;18.27;;
24443;SDS011;13346;50.984;5.822;2023-02-05T06:46:15;20.87;;;16.57;;
24443;SDS011;13346;50.984;5.822;2023-02-05T06:48:43;22.07;;;16.20;;
24443;SDS011;13346;50.984;5.822;2023-02-05T06:51:10;24.53;;;17.00;;
24443;SDS011;13346;50.984;5.822;2023-02-05T06:53:39;19.70;;;14.77;;
24443;SDS011;13346;50.984;5.822;2023-02-05T06:56:06;17.47;;;12.67;;
24443;SDS011;13346;50.984;5.822;2023-02-05T06:58:33;18.33;;;12.50;;
24443;SDS011;13346;50.984;5.822;2023-02-05T07:01:01;18.63;;;14.53;;
24443;SDS011;13346;50.984;5.822;2023-02-05T07:03:28;19.47;;;14.00;;
24443;SDS011;13346;50.984;5.822;2023-02-05T07:06:00;16.67;;;14.97;;
24443;SDS011;13346;50.984;5.822;2023-02-05T07:08:28;16.03;;;13.77;;
24443;SDS011;13346;50.984;5.822;2023-02-05T07:10:57;15.50;;;13.30;;
24443;SDS011;13346;50.984;5.822;2023-02-05T07:13:25;18.07;;;13.97;;
24443;SDS011;13346;50.984;5.822;2023-02-05T07:15:52;19.60;;;13.73;;
24443;SDS011;13346;50.984;5.822;2023-02-05T07:18:19;19.40;;;15.60;;
24443;SDS011;13346;50.984;5.822;2023-02-05T07:20:46;14.63;;;11.27;;
24443;SDS011;13346;50.984;5.822;2023-02-05T07:23:13;15.97;;;14.27;;
24443;SDS011;13346;50.984;5.822;2023-02-05T07:25:40;15.97;;;13.70;;
24443;SDS011;13346;50.984;5.822;2023-02-05T07:28:09;15.37;;;11.30;;
24443;SDS011;13346;50.984;5.822;2023-02-05T07:30:36;10.70;;;9.63;;
24443;SDS011;13346;50.984;5.822;2023-02-05T07:33:03;15.80;;;11.77;;
24443;SDS011;13346;50.984;5.822;2023-02-05T07:35:31;14.40;;;12.90;;
24443;SDS011;13346;50.984;5.822;2023-02-05T07:38:01;12.07;;;10.60;;
24443;SDS011;13346;50.984;5.822;2023-02-05T07:40:29;13.20;;;11.97;;
24443;SDS011;13346;50.984;5.822;2023-02-05T07:42:56;13.10;;;8.87;;
24443;SDS011;13346;50.984;5.822;2023-02-05T07:45:25;11.53;;;10.33;;
24443;SDS011;13346;50.984;5.822;2023-02-05T07:47:52;12.77;;;11.43;;
24443;SDS011;13346;50.984;5.822;2023-02-05T07:50:19;9.00;;;8.20;;
24443;SDS011;13346;50.984;5.822;2023-02-05T07:52:47;9.73;;;8.77;;
24443;SDS011;13346;50.984;5.822;2023-02-05T07:55:14;7.40;;;6.67;;
24443;SDS011;13346;50.984;5.822;2023-02-05T07:57:41;8.43;;;7.73;;
24443;SDS011;13346;50.984;5.822;2023-02-05T08:00:09;5.10;;;4.70;;
24443;SDS011;13346;50.984;5.822;2023-02-05T08:02:39;2.70;;;2.60;;
24443;SDS011;13346;50.984;5.822;2023-02-05T08:05:06;6.60;;;3.40;;
24443;SDS011;13346;50.984;5.822;2023-02-05T08:07:34;2.33;;;1.93;;
24443;SDS011;13346;50.984;5.822;2023-02-05T08:10:01;8.13;;;2.40;;
24443;SDS011;13346;50.984;5.822;2023-02-05T08:12:29;1.17;;;1.17;;
24443;SDS011;13346;50.984;5.822;2023-02-05T08:14:56;0.67;;;0.67;;
24443;SDS011;13346;50.984;5.822;2023-02-05T08:17:23;1.53;;;1.20;;
24443;SDS011;13346;50.984;5.822;2023-02-05T08:19:52;1.53;;;1.40;;
24443;SDS011;13346;50.984;5.822;2023-02-05T08:22:19;3.30;;;0.93;;
24443;SDS011;13346;50.984;5.822;2023-02-05T08:24:46;0.50;;;0.50;;
24443;SDS011;13346;50.984;5.822;2023-02-05T08:27:13;0.40;;;0.40;;
24443;SDS011;13346;50.984;5.822;2023-02-05T08:29:41;0.60;;;0.60;;
24443;SDS011;13346;50.984;5.822;2023-02-05T08:32:08;0.40;;;0.40;;
24443;SDS011;13346;50.984;5.822;2023-02-05T08:34:35;1.13;;;1.07;;
24443;SDS011;13346;50.984;5.822;2023-02-05T08:37:03;2.73;;;1.00;;
24443;SDS011;13346;50.984;5.822;2023-02-05T08:39:31;3.63;;;0.40;;
24443;SDS011;13346;50.984;5.822;2023-02-05T08:41:58;0.30;;;0.30;;
24443;SDS011;13346;50.984;5.822;2023-02-05T08:44:26;5.17;;;0.90;;
24443;SDS011;13346;50.984;5.822;2023-02-05T08:46:53;0.70;;;0.50;;
24443;SDS011;13346;50.984;5.822;2023-02-05T08:49:20;1.13;;;0.43;;
24443;SDS011;13346;50.984;5.822;2023-02-05T08:51:48;1.13;;;0.87;;
24443;SDS011;13346;50.984;5.822;2023-02-05T08:54:16;4.17;;;0.80;;
24443;SDS011;13346;50.984;5.822;2023-02-05T08:56:44;2.53;;;1.10;;
24443;SDS011;13346;50.984;5.822;2023-02-05T08:59:14;0.57;;;0.57;;
24443;SDS011;13346;50.984;5.822;2023-02-05T09:01:41;2.03;;;0.73;;
24443;SDS011;13346;50.984;5.822;2023-02-05T09:04:11;4.43;;;0.70;;
24443;SDS011;13346;50.984;5.822;2023-02-05T09:06:40;4.33;;;0.83;;
24443;SDS011;13346;50.984;5.822;2023-02-05T09:09:07;4.13;;;1.20;;
24443;SDS011;13346;50.984;5.822;2023-02-05T09:11:36;2.73;;;1.27;;
24443;SDS011;13346;50.984;5.822;2023-02-05T09:14:03;4.93;;;1.07;;
24443;SDS011;13346;50.984;5.822;2023-02-05T09:16:31;2.20;;;1.00;;
24443;SDS011;13346;50.984;5.822;2023-02-05T09:18:59;2.00;;;1.73;;
24443;SDS011;13346;50.984;5.822;2023-02-05T09:21:26;0.87;;;0.73;;
24443;SDS011;13346;50.984;5.822;2023-02-05T09:23:53;1.57;;;0.80;;
24443;SDS011;13346;50.984;5.822;2023-02-05T09:26:21;2.70;;;1.00;;
24443;SDS011;13346;50.984;5.822;2023-02-05T09:28:51;6.17;;;1.40;;
24443;SDS011;13346;50.984;5.822;2023-02-05T09:31:19;3.17;;;1.70;;
24443;SDS011;13346;50.984;5.822;2023-02-05T09:33:46;3.80;;;1.43;;
24443;SDS011;13346;50.984;5.822;2023-02-05T09:36:15;3.33;;;1.30;;
24443;SDS011;13346;50.984;5.822;2023-02-05T09:38:43;4.57;;;1.50;;
24443;SDS011;13346;50.984;5.822;2023-02-05T09:41:14;2.33;;;1.03;;
24443;SDS011;13346;50.984;5.822;2023-02-05T09:43:52;2.47;;;1.07;;
24443;SDS011;13346;50.984;5.822;2023-02-05T09:46:25;4.97;;;1.27;;
24443;SDS011;13346;50.984;5.822;2023-02-05T09:48:59;7.13;;;2.00;;
24443;SDS011;13346;50.984;5.822;2023-02-05T09:51:34;2.10;;;1.00;;
24443;SDS011;13346;50.984;5.822;2023-02-05T09:54:05;1.50;;;0.93;;
24443;SDS011;13346;50.984;5.822;2023-02-05T09:56:41;3.13;;;1.23;;
24443;SDS011;13346;50.984;5.822;2023-02-05T09:59:11;3.43;;;1.07;;
24443;SDS011;13346;50.984;5.822;2023-02-05T10:01:42;2.40;;;2.00;;
24443;SDS011;13346;50.984;5.822;2023-02-05T10:04:13;6.30;;;1.27;;
24443;SDS011;13346;50.984;5.822;2023-02-05T10:12:52;2.50;;;1.50;;
24443;SDS011;13346;50.984;5.822;2023-02-05T10:15:40;5.93;;;2.17;;
24443;SDS011;13346;50.984;5.822;2023-02-05T10:18:20;5.50;;;1.87;;
24443;SDS011;13346;50.984;5.822;2023-02-05T10:20:59;6.10;;;1.77;;
24443;SDS011;13346;50.984;5.822;2023-02-05T10:23:41;6.10;;;2.43;;
24443;SDS011;13346;50.984;5.822;2023-02-05T10:26:25;3.10;;;1.57;;
24443;SDS011;13346;50.984;5.822;2023-02-05T10:29:07;4.20;;;1.80;;
24443;SDS011;13346;50.984;5.822;2023-02-05T10:31:53;9.00;;;2.00;;
24443;SDS011;13346;50.984;5.822;2023-02-05T10:34:36;8.10;;;1.90;;
24443;SDS011;13346;50.984;5.822;2023-02-05T10:37:15;6.27;;;2.53;;
24443;SDS011;13346;50.984;5.822;2023-02-05T10:39:44;6.93;;;2.37;;
24443;SDS011;13346;50.984;5.822;2023-02-05T10:42:20;8.13;;;1.90;;
24443;SDS011;13346;50.984;5.822;2023-02-05T10:44:54;10.37;;;2.33;;
24443;SDS011;13346;50.984;5.822;2023-02-05T10:47:48;6.53;;;2.20;;
24443;SDS011;13346;50.984;5.822;2023-02-05T10:50:27;9.60;;;2.23;;
24443;SDS011;13346;50.984;5.822;2023-02-05T10:53:02;7.47;;;2.60;;
24443;SDS011;13346;50.984;5.822;2023-02-05T10:55:29;6.80;;;3.07;;
24443;SDS011;13346;50.984;5.822;2023-02-05T10:57:56;8.67;;;2.37;;
24443;SDS011;13346;50.984;5.822;2023-02-05T11:00:25;8.93;;;2.33;;
24443;SDS011;13346;50.984;5.822;2023-02-05T11:02:54;4.57;;;1.53;;
24443;SDS011;13346;50.984;5.822;2023-02-05T11:05:25;7.57;;;1.80;;
24443;SDS011;13346;50.984;5.822;2023-02-05T11:08:00;7.30;;;2.63;;
24443;SDS011;13346;50.984;5.822;2023-02-05T11:10:28;9.93;;;3.03;;
24443;SDS011;13346;50.984;5.822;2023-02-05T11:12:57;4.20;;;1.93;;
24443;SDS011;13346;50.984;5.822;2023-02-05T11:15:30;8.20;;;2.00;;
24443;SDS011;13346;50.984;5.822;2023-02-05T11:18:00;1.70;;;1.27;;
24443;SDS011;13346;50.984;5.822;2023-02-05T11:20:31;7.63;;;2.30;;
24443;SDS011;13346;50.984;5.822;2023-02-05T11:23:14;6.03;;;3.10;;
24443;SDS011;13346;50.984;5.822;2023-02-05T11:25:50;11.13;;;2.47;;
24443;SDS011;13346;50.984;5.822;2023-02-05T11:28:18;2.83;;;1.73;;
24443;SDS011;13346;50.984;5.822;2023-02-05T11:30:51;7.03;;;2.60;;
24443;SDS011;13346;50.984;5.822;2023-02-05T11:36:05;12.83;;;3.10;;
24443;SDS011;13346;50.984;5.822;2023-02-05T11:38:44;4.60;;;2.13;;
24443;SDS011;13346;50.984;5.822;2023-02-05T11:41:13;8.20;;;3.37;;
24443;SDS011;13346;50.984;5.822;2023-02-05T11:43:52;9.20;;;2.13;;
24443;SDS011;13346;50.984;5.822;2023-02-05T11:46:21;2.13;;;1.50;;
24443;SDS011;13346;50.984;5.822;2023-02-05T11:48:53;4.53;;;2.43;;
24443;SDS011;13346;50.984;5.822;2023-02-05T11:51:27;4.83;;;2.30;;
24443;SDS011;13346;50.984;5.822;2023-02-05T11:54:16;4.60;;;1.93;;
24443;SDS011;13346;50.984;5.822;2023-02-05T11:56:59;10.40;;;3.43;;
24443;SDS011;13346;50.984;5.822;2023-02-05T11:59:29;3.53;;;1.87;;
24443;SDS011;13346;50.984;5.822;2023-02-05T12:04:59;3.53;;;2.00;;
24443;SDS011;13346;50.984;5.822;2023-02-05T12:07:33;8.83;;;2.37;;
24443;SDS011;13346;50.984;5.822;2023-02-05T12:10:11;5.73;;;2.33;;
24443;SDS011;13346;50.984;5.822;2023-02-05T12:12:42;1.40;;;1.23;;
24443;SDS011;13346;50.984;5.822;2023-02-05T12:15:21;6.17;;;2.33;;
24443;SDS011;13346;50.984;5.822;2023-02-05T12:17:52;3.37;;;2.50;;
24443;SDS011;13346;50.984;5.822;2023-02-05T12:20:31;3.83;;;1.40;;
24443;SDS011;13346;50.984;5.822;2023-02-05T12:28:54;5.27;;;1.77;;
24443;SDS011;13346;50.984;5.822;2023-02-05T12:31:44;8.00;;;2.60;;
24443;SDS011;13346;50.984;5.822;2023-02-05T12:34:22;6.47;;;1.73;;
24443;SDS011;13346;50.984;5.822;2023-02-05T12:36:59;1.73;;;1.63;;
24443;SDS011;13346;50.984;5.822;2023-02-05T12:39:36;10.70;;;2.17;;
24443;SDS011;13346;50.984;5.822;2023-02-05T12:42:18;7.93;;;2.57;;
24443;SDS011;13346;50.984;5.822;2023-02-05T12:45:01;5.87;;;1.90;;
24443;SDS011;13346;50.984;5.822;2023-02-05T12:47:45;10.63;;;3.13;;
24443;SDS011;13346;50.984;5.822;2023-02-05T12:50:32;10.97;;;2.43;;
24443;SDS011;13346;50.984;5.822;2023-02-05T12:53:17;2.80;;;1.33;;
24443;SDS011;13346;50.984;5.822;2023-02-05T12:56:01;10.40;;;2.93;;
24443;SDS011;13346;50.984;5.822;2023-02-05T12:58:48;7.10;;;2.27;;
24443;SDS011;13346;50.984;5.822;2023-02-05T13:01:20;5.90;;;2.03;;
24443;SDS011;13346;50.984;5.822;2023-02-05T13:03:52;16.30;;;3.03;;
24443;SDS011;13346;50.984;5.822;2023-02-05T13:06:25;7.40;;;1.93;;
24443;SDS011;13346;50.984;5.822;2023-02-05T13:08:59;7.10;;;1.73;;
24443;SDS011;13346;50.984;5.822;2023-02-05T13:11:30;9.90;;;2.80;;
24443;SDS011;13346;50.984;5.822;2023-02-05T13:14:05;8.50;;;3.47;;
24443;SDS011;13346;50.984;5.822;2023-02-05T13:16:39;7.70;;;2.60;;
24443;SDS011;13346;50.984;5.822;2023-02-05T13:19:13;9.80;;;2.50;;
24443;SDS011;13346;50.984;5.822;2023-02-05T13:21:49;8.83;;;2.23;;
24443;SDS011;13346;50.984;5.822;2023-02-05T13:24:40;3.87;;;1.67;;
24443;SDS011;13346;50.984;5.822;2023-02-05T13:27:30;7.07;;;2.90;;
24443;SDS011;13346;50.984;5.822;2023-02-05T13:30:18;9.30;;;2.33;;
24443;SDS011;13346;50.984;5.822;2023-02-05T13:32:51;1.67;;;1.27;;
24443;SDS011;13346;50.984;5.822;2023-02-05T13:35:21;13.93;;;2.97;;
24443;SDS011;13346;50.984;5.822;2023-02-05T13:41:00;11.53;;;3.17;;
24443;SDS011;13346;50.984;5.822;2023-02-05T13:44:03;9.40;;;2.37;;
24443;SDS011;13346;50.984;5.822;2023-02-05T13:46:49;5.87;;;2.40;;
24443;SDS011;13346;50.984;5.822;2023-02-05T13:49:48;15.27;;;2.80;;
24443;SDS011;13346;50.984;5.822;2023-02-05T13:52:34;9.93;;;2.60;;
24443;SDS011;13346;50.984;5.822;2023-02-05T13:58:37;5.83;;;3.40;;
24443;SDS011;13346;50.984;5.822;2023-02-05T14:01:13;5.47;;;2.43;;
24443;SDS011;13346;50.984;5.822;2023-02-05T14:03:50;9.77;;;3.17;;
24443;SDS011;13346;50.984;5.822;2023-02-05T14:06:22;6.33;;;3.40;;
24443;SDS011;13346;50.984;5.822;2023-02-05T14:08:56;4.57;;;1.30;;
24443;SDS011;13346;50.984;5.822;2023-02-05T14:11:41;3.67;;;2.47;;
24443;SDS011;13346;50.984;5.822;2023-02-05T14:14:24;11.13;;;3.00;;
24443;SDS011;13346;50.984;5.822;2023-02-05T14:16:54;9.90;;;3.53;;
24443;SDS011;13346;50.984;5.822;2023-02-05T14:19:23;15.40;;;2.43;;
24443;SDS011;13346;50.984;5.822;2023-02-05T14:22:02;4.93;;;2.07;;
24443;SDS011;13346;50.984;5.822;2023-02-05T14:24:42;8.40;;;3.47;;
24443;SDS011;13346;50.984;5.822;2023-02-05T14:30:33;3.60;;;2.43;;
24443;SDS011;13346;50.984;5.822;2023-02-05T14:36:26;7.73;;;2.77;;
24443;SDS011;13346;50.984;5.822;2023-02-05T14:39:16;6.70;;;2.20;;
24443;SDS011;13346;50.984;5.822;2023-02-05T14:41:47;8.87;;;1.43;;
24443;SDS011;13346;50.984;5.822;2023-02-05T14:44:20;10.30;;;2.87;;
24443;SDS011;13346;50.984;5.822;2023-02-05T14:46:59;4.60;;;2.17;;
24443;SDS011;13346;50.984;5.822;2023-02-05T14:49:34;2.20;;;0.63;;
24443;SDS011;13346;50.984;5.822;2023-02-05T14:52:05;4.90;;;1.87;;
24443;SDS011;13346;50.984;5.822;2023-02-05T14:54:51;4.60;;;2.50;;
24443;SDS011;13346;50.984;5.822;2023-02-05T14:57:25;2.93;;;1.53;;
24443;SDS011;13346;50.984;5.822;2023-02-05T15:00:00;4.70;;;2.00;;
24443;SDS011;13346;50.984;5.822;2023-02-05T15:05:33;4.33;;;2.00;;
24443;SDS011;13346;50.984;5.822;2023-02-05T15:08:08;4.87;;;2.00;;
24443;SDS011;13346;50.984;5.822;2023-02-05T15:10:44;2.60;;;1.17;;
24443;SDS011;13346;50.984;5.822;2023-02-05T15:13:14;13.10;;;2.47;;
24443;SDS011;13346;50.984;5.822;2023-02-05T15:18:47;4.67;;;1.90;;
24443;SDS011;13346;50.984;5.822;2023-02-05T15:21:19;10.63;;;4.07;;
24443;SDS011;13346;50.984;5.822;2023-02-05T15:23:51;10.97;;;2.77;;
24443;SDS011;13346;50.984;5.822;2023-02-05T15:26:26;10.63;;;2.57;;
24443;SDS011;13346;50.984;5.822;2023-02-05T15:29:02;15.10;;;4.10;;
24443;SDS011;13346;50.984;5.822;2023-02-05T15:31:33;7.03;;;1.97;;
24443;SDS011;13346;50.984;5.822;2023-02-05T15:34:10;16.13;;;3.17;;
24443;SDS011;13346;50.984;5.822;2023-02-05T15:36:51;7.57;;;2.20;;
24443;SDS011;13346;50.984;5.822;2023-02-05T15:39:25;5.60;;;2.00;;